Latest Weather Observations for Cape Nelson

IDV60801

Issued at 5:12 am EDT Monday 9 December 2019 (issued every 10 minutes, with the page automatically refreshed every 10 minutes)

About weather observations | Map of weather stations | Latest weather observations for VIC | Other Formats
Station Details ID: 090184 Name: CAPE NELSON LIGHTHOUSE Lat: -38.43 Lon: 141.54 Height: 45.4 m
Data from the previous 72 hours. | See also: Recent months at Cape Nelson
Date/Time
EDT
Temp
°C
App
Temp
°C
Dew
Point
°C
Rel
Hum
%
Delta-T
°C
Wind Press
QNH
hPa
Press
MSL
hPa
Rain since
9am
mm
Dir  Spd
km/h
Gust
km/h
Spd
kts
Gust
kts
09/05:00am 25.1 16.8 1.9 22 11.1 N 35 54 19 29 1008.3 1008.2 0.0
09/04:41am 24.8 16.4 1.7 22 11.0 N 35 54 19 29 1008.5 1008.4 0.0
09/04:30am 24.7 16.3 1.6 22 10.9 N 35 48 19 26 1008.5 1008.4 0.0
09/04:12am 24.5 16.6 2.0 23 10.7 N 33 52 18 28 1008.5 1008.4 0.0
09/04:00am 24.6 16.9 2.1 23 10.8 N 32 43 17 23 1008.5 1008.4 0.0
09/03:30am 24.0 16.9 3.3 26 10.1 N 30 44 16 24 1009.0 1008.9 0.0
09/03:00am 22.2 15.7 4.7 32 8.6 N 28 37 15 20 1009.3 1009.2 0.0
09/02:30am 22.3 15.6 5.7 34 8.4 N 30 39 16 21 1009.5 1009.4 0.0
09/02:04am 22.2 16.1 6.8 37 7.9 N 28 46 15 25 1009.8 1009.7 0.0
09/02:00am 22.5 15.6 6.3 35 8.3 NNE 32 46 17 25 1009.6 1009.5 0.0
09/01:30am 20.8 16.4 10.3 51 5.7 NNE 24 35 13 19 1009.8 1009.7 0.0
09/01:00am 19.1 14.1 12.1 64 3.9 NE 30 37 16 20 1010.3 1010.2 0.0
09/12:30am 18.7 14.7 12.9 69 3.3 NNE 26 35 14 19 1011.0 1010.9 0.0
09/12:00am 18.5 15.1 13.6 73 2.8 NE 24 33 13 18 1011.6 1011.5 0.0
 
Date/Time
EDT
Temp
°C
App
Temp
°C
Dew
Point
°C
Rel
Hum
%
Delta-T
°C
Wind Press
QNH
hPa
Press
MSL
hPa
Rain since
9am
mm
Dir  Spd
km/h
Gust
km/h
Spd
kts
Gust
kts
08/11:30pm 18.1 14.4 14.0 77 2.3 NE 26 32 14 17 1012.3 1012.2 0.0
08/11:00pm 17.1 14.3 14.4 84 1.6 NE 22 28 12 15 1012.8 1012.7 0.0
08/10:30pm 17.2 14.3 14.1 82 1.8 NE 22 28 12 15 1013.0 1012.9 0.0
08/10:00pm 17.1 13.7 13.8 81 1.9 NE 24 32 13 17 1013.4 1013.3 0.0
08/09:30pm 17.2 13.7 13.5 79 2.1 ENE 24 30 13 16 1013.6 1013.5 0.0
08/09:00pm 17.2 13.7 13.5 79 2.1 NE 24 32 13 17 1013.6 1013.5 0.0
08/08:30pm 17.2 13.7 13.3 78 2.2 NE 24 32 13 17 1013.6 1013.5 0.0
08/08:00pm 17.5 14.1 13.6 78 2.2 NE 24 33 13 18 1013.6 1013.5 0.0
08/07:30pm 17.7 14.3 13.8 78 2.2 NE 24 33 13 18 1013.7 1013.6 0.0
08/07:00pm 17.9 13.8 13.8 77 2.3 ENE 28 35 15 19 1013.8 1013.7 0.0
08/06:30pm 17.7 14.0 13.8 78 2.2 ENE 26 33 14 18 1014.0 1013.9 0.0
08/06:00pm 18.1 14.4 14.0 77 2.3 ENE 26 32 14 17 1014.2 1014.1 0.0
08/05:30pm 18.3 14.6 13.8 75 2.6 ENE 26 33 14 18 1014.3 1014.2 0.0
08/05:00pm 18.9 16.1 14.2 74 2.7 ENE 22 32 12 17 1014.7 1014.6 0.0
08/04:30pm 19.1 16.2 13.9 72 3.0 ENE 22 30 12 16 1014.9 1014.8 0.0
08/04:00pm 18.3 14.4 13.4 73 2.8 E 26 30 14 16 1015.2 1015.1 0.0
08/03:30pm 18.7 15.7 13.6 72 2.9 E 22 30 12 16 1015.4 1015.3 0.0
08/03:00pm 19.0 16.0 13.6 71 3.1 E 22 28 12 15 1015.7 1015.6 0.0
08/02:30pm 18.7 15.9 13.1 70 3.2 E 20 28 11 15 1015.9 1015.8 0.0
08/02:00pm 18.7 15.6 13.3 71 3.1 E 22 28 12 15 1016.3 1016.2 0.0
08/01:30pm 18.6 15.4 13.0 70 3.2 E 22 32 12 17 1016.5 1016.4 0.0
08/01:00pm 18.0 13.9 12.7 71 3.0 E 26 33 14 18 1016.9 1016.8 0.0
08/12:30pm 17.8 14.0 12.5 71 2.9 E 24 32 13 17 1017.1 1017.0 0.0
08/12:00pm 17.8 14.2 11.8 68 3.3 E 22 33 12 18 1017.3 1017.2 0.0
08/11:30am 17.4 13.3 11.4 68 3.3 ENE 24 33 13 18 1017.5 1017.4 0.0
08/11:00am 16.5 12.3 11.2 71 2.9 ENE 24 33 13 18 1017.8 1017.7 0.0
08/10:30am 15.7 10.3 10.9 73 2.6 ENE 30 39 16 21 1017.5 1017.4 0.0
08/10:00am 15.0 8.9 10.6 75 2.3 ENE 33 43 18 23 1017.4 1017.3 0.0
08/09:30am 14.0 7.4 10.0 77 2.1 ENE 35 44 19 24 1017.5 1017.4 0.0
08/09:00am 13.6 7.3 9.8 78 2.0 ENE 33 46 18 25 1017.6 1017.5 0.0
08/08:30am 13.1 6.7 9.4 78 1.9 ENE 33 44 18 24 1017.6 1017.5 0.0
08/08:00am 13.0 7.6 9.4 79 1.8 NE 28 39 15 21 1017.6 1017.5 0.0
08/07:30am 12.6 6.8 9.6 82 1.5 ENE 30 41 16 22 1017.7 1017.6 0.0
08/07:00am 12.4 7.4 9.6 83 1.4 ENE 26 35 14 19 1017.7 1017.6 0.0
08/06:30am 12.1 6.7 9.5 84 1.3 ENE 28 39 15 21 1017.5 1017.4 0.0
08/06:00am 12.1 6.7 9.5 84 1.3 ENE 28 35 15 19 1017.3 1017.2 0.0
08/05:30am 12.2 7.9 9.4 83 1.4 ENE 22 30 12 16 1017.5 1017.4 0.0
08/05:00am 12.4 8.7 9.6 83 1.4 ENE 19 28 10 15 1017.6 1017.5 0.0
08/04:30am 12.4 9.5 9.6 83 1.4 ENE 15 24 8 13 1017.9 1017.8 0.0
08/04:00am 12.4 9.1 9.6 83 1.4 E 17 26 9 14 1018.0 1017.9 0.0
08/03:30am 12.2 8.5 9.4 83 1.4 E 19 26 10 14 1017.8 1017.7 0.0
08/03:00am 12.4 9.1 9.6 83 1.4 E 17 26 9 14 1018.1 1018.0 0.0
08/02:30am 12.0 8.0 9.0 82 1.5 E 20 28 11 15 1018.2 1018.1 0.0
08/02:00am 12.4 9.8 9.4 82 1.5 ESE 13 19 7 10 1018.8 1018.7 0.0
08/01:30am 12.4 9.8 9.2 81 1.6 E 13 24 7 13 1019.1 1019.1 0.0
08/01:00am 12.2 9.9 8.9 80 1.6 E 11 17 6 9 1019.5 1019.5 0.0
08/12:30am 12.4 10.1 9.1 80 1.7 ESE 11 19 6 10 1019.2 1019.2 0.0
08/12:00am 12.5 10.3 9.3 81 1.6 E 11 17 6 9 1019.4 1019.4 0.0
 
Date/Time
EDT
Temp
°C
App
Temp
°C
Dew
Point
°C
Rel
Hum
%
Delta-T
°C
Wind Press
QNH
hPa
Press
MSL
hPa
Rain since
9am
mm
Dir  Spd
km/h
Gust
km/h
Spd
kts
Gust
kts
07/11:30pm 12.8 10.7 9.8 82 1.5 SE 11 15 6 8 1019.5 1019.5 0.0
07/11:00pm 12.9 10.5 9.9 82 1.5 SE 13 22 7 12 1019.4 1019.4 0.0
07/10:30pm 12.7 10.8 9.2 79 1.8 SSE 9 13 5 7 1019.8 1019.8 0.0
07/10:00pm 12.8 10.2 9.3 79 1.8 SSE 13 19 7 10 1019.7 1019.7 0.0
07/09:30pm 13.1 10.5 9.5 79 1.8 S 13 19 7 10 1019.6 1019.6 0.0
07/09:00pm 13.1 10.9 9.2 77 2.0 S 11 19 6 10 1019.2 1019.2 0.0
07/08:30pm 13.0 10.6 8.5 74 2.2 SSW 11 20 6 11 1018.9 1018.9 0.0
07/08:00pm 13.0 10.5 8.3 73 2.3 SSE 11 19 6 10 1018.9 1018.9 0.0
07/07:30pm 13.4 10.7 8.9 74 2.3 SSE 13 22 7 12 1018.8 1018.7 0.0
07/07:00pm 13.7 10.9 8.7 72 2.5 S 13 20 7 11 1018.7 1018.6 0.0
07/06:30pm 13.9 11.1 8.5 70 2.7 SSE 13 24 7 13 1018.6 1018.5 0.0
07/06:00pm 14.6 12.6 8.8 68 2.9 NNE 9 17 5 9 1018.3 1018.2 0.0
07/05:30pm 14.7 12.3 8.6 67 3.1 ESE 11 19 6 10 1018.5 1018.4 0.0
07/05:00pm 15.4 13.0 8.6 64 3.5 NNE 11 22 6 12 1018.5 1018.4 0.0
07/04:30pm 15.3 12.9 8.8 65 3.3 N 11 17 6 9 1018.5 1018.4 0.0
07/04:00pm 15.5 13.3 9.4 67 3.1 NNE 11 20 6 11 1018.4 1018.3 0.0
07/03:30pm 15.5 11.9 8.5 63 3.6 WNW 17 28 9 15 1018.6 1018.5 0.0
07/03:00pm 15.0 11.1 8.7 66 3.2 W 19 32 10 17 1018.5 1018.4 0.0
07/02:30pm 15.2 11.7 8.9 66 3.2 WNW 17 24 9 13 1018.3 1018.2 0.0
07/02:00pm 15.4 11.9 8.9 65 3.3 WNW 17 26 9 14 1018.5 1018.4 0.0
07/01:30pm 14.5 10.3 8.2 66 3.2 W 20 28 11 15 1018.3 1018.2 0.0
07/01:00pm 14.2 9.4 8.8 70 2.7 W 24 33 13 18 1018.1 1018.0 0.0
07/12:30pm 14.2 9.7 8.6 69 2.8 W 22 28 12 15 1018.0 1017.9 0.0
07/12:00pm 14.1 9.7 8.9 71 2.6 WSW 22 30 12 16 1018.1 1018.0 0.0
07/11:30am 13.7 9.5 8.1 69 2.8 W 20 30 11 16 1017.9 1017.8 0.0
07/11:00am 13.9 9.4 8.5 70 2.7 W 22 33 12 18 1017.9 1017.8 0.0
07/10:30am 13.7 9.6 8.7 72 2.5 W 20 32 11 17 1017.9 1017.8 0.0
07/10:00am 13.3 8.0 8.6 73 2.4 W 26 33 14 18 1017.8 1017.7 0.0
07/09:30am 13.7 9.4 9.4 75 2.2 W 22 32 12 17 1017.8 1017.7 0.0
07/09:00am 13.6 8.9 9.1 74 2.3 W 24 33 13 18 1017.9 1017.8 0.0
07/08:30am 13.2 8.8 8.9 75 2.2 W 22 35 12 19 1017.6 1017.5 0.0
07/08:00am 12.9 8.0 8.6 75 2.1 W 24 35 13 19 1017.5 1017.4 0.0
07/07:30am 12.5 7.1 8.2 75 2.1 WSW 26 33 14 18 1017.1 1017.0 0.0
07/07:00am 12.6 8.1 8.7 77 1.9 W 22 33 12 18 1016.7 1016.6 0.0
07/06:30am 12.5 8.0 8.6 77 1.9 W 22 35 12 19 1016.4 1016.3 0.0
07/06:00am 12.4 6.3 8.1 75 2.1 WSW 30 39 16 21 1016.3 1016.2 0.0
07/05:30am 12.7 8.6 8.8 77 2.0 WSW 20 35 11 19 1016.0 1015.9 0.0
07/05:00am 12.4 7.0 8.1 75 2.1 WSW 26 37 14 20 1015.9 1015.8 0.0
07/04:30am 12.6 7.7 8.5 76 2.0 W 24 33 13 18 1015.8 1015.7 0.0
07/04:00am 12.4 7.0 7.9 74 2.2 WSW 26 35 14 19 1015.9 1015.8 0.0
07/03:30am 12.4 7.4 7.9 74 2.2 W 24 35 13 19 1015.9 1015.8 0.0
07/03:00am 12.5 7.5 8.0 74 2.2 W 24 35 13 19 1015.9 1015.8 0.0
07/02:30am 12.6 7.6 8.1 74 2.2 W 24 35 13 19 1016.2 1016.1 0.0
07/02:00am 12.6 8.5 7.9 73 2.3 W 19 30 10 16 1016.5 1016.4 0.0
07/01:30am 12.5 8.4 7.8 73 2.3 WNW 19 30 10 16 1016.8 1016.7 0.0
07/01:00am 12.7 8.7 8.2 74 2.2 W 19 28 10 15 1016.6 1016.5 0.0
07/12:30am 12.7 9.1 8.2 74 2.2 NW 17 32 9 17 1016.5 1016.4 0.0
07/12:00am 12.5 8.8 7.8 73 2.3 NNW 17 24 9 13 1016.6 1016.5 0.0
 
Date/Time
EDT
Temp
°C
App
Temp
°C
Dew
Point
°C
Rel
Hum
%
Delta-T
°C
Wind Press
QNH
hPa
Press
MSL
hPa
Rain since
9am
mm
Dir  Spd
km/h
Gust
km/h
Spd
kts
Gust
kts
06/11:30pm 12.6 8.9 8.1 74 2.2 N 17 24 9 13 1016.6 1016.5 0.0
06/11:00pm 13.0 7.0 8.7 75 2.2 WSW 30 39 16 21 1016.6 1016.5 0.0
06/10:30pm 13.0 8.9 7.9 71 2.5 W 19 32 10 17 1016.6 1016.5 0.0
06/10:00pm 12.8 9.3 7.0 68 2.8 NNW 15 24 8 13 1016.5 1016.4 0.0
06/09:30pm 12.7 8.9 7.4 70 2.6 N 17 30 9 16 1016.4 1016.3 0.0
06/09:00pm 12.8 7.7 7.5 70 2.6 W 24 37 13 20 1016.3 1016.2 0.0
06/08:30pm 12.8 8.8 8.1 73 2.3 NW 19 32 10 17 1016.1 1016.0 0.0
06/08:00pm 13.2 6.8 8.7 74 2.3 W 32 39 17 21 1015.8 1015.7 0.0
06/07:30pm 13.1 7.3 8.0 71 2.5 W 28 43 15 23 1015.7 1015.6 0.0
06/07:00pm 13.5 7.8 6.8 64 3.2 W 26 44 14 24 1015.4 1015.3 0.0
06/06:30pm 13.4 8.8 8.3 71 2.5 WNW 22 37 12 20 1015.1 1015.0 0.0
06/06:00pm 13.5 8.2 8.6 72 2.5 W 26 41 14 22 1014.8 1014.7 0.0
06/05:30pm 14.0 7.8 7.8 66 3.1 W 30 44 16 24 1014.7 1014.6 0.0
06/05:00pm 13.4 6.9 8.3 71 2.5 W 32 44 17 24 1014.6 1014.5 0.0
06/04:30pm 13.5 6.2 7.3 66 3.0 W 35 48 19 26 1014.7 1014.6 0.0
06/04:00pm 14.1 8.7 7.9 66 3.1 WNW 26 46 14 25 1014.9 1014.8 0.0
06/03:30pm 14.1 7.8 8.9 71 2.6 W 32 50 17 27 1014.2 1014.1 0.0
06/03:25pm 14.3 8.1 9.3 72 2.6 W 32 50 17 27 1014.1 1014.0 0.0
06/03:00pm 13.6 8.4 8.9 73 2.4 WNW 26 43 14 23 1014.2 1014.1 0.0
06/02:30pm 14.2 8.1 10.4 78 2.0 WSW 33 50 18 27 1013.9 1013.8 0.0
06/02:01pm 14.4 8.9 9.0 70 2.8 W 28 46 15 25 1013.9 1013.8 0.0
06/02:00pm 14.5 8.6 9.1 70 2.8 W 30 46 16 25 1013.9 1013.8 0.0
06/01:30pm 14.1 7.1 8.5 69 2.8 WSW 35 48 19 26 1013.9 1013.8 0.0
06/01:00pm 13.9 7.1 9.1 73 2.4 W 35 46 19 25 1013.6 1013.5 0.0
06/12:36pm 13.2 6.7 8.9 75 2.2 W 33 52 18 28 1013.7 1013.6 0.0
06/12:30pm 13.8 6.3 9.3 74 2.3 WSW 39 52 21 28 1013.8 1013.7 0.0
06/12:04pm 13.9 7.7 9.3 74 2.3 W 32 50 17 27 1013.5 1013.4 0.0
06/12:00pm 13.9 7.5 9.3 74 2.3 WSW 33 50 18 27 1013.5 1013.4 0.0
06/11:35am 13.8 8.3 9.3 74 2.3 WSW 28 46 15 25 1013.1 1013.0 0.0
06/11:30am 14.2 9.0 10.4 78 2.0 W 28 44 15 24 1013.1 1013.0 0.0
06/11:27am 14.2 8.3 10.4 78 2.0 W 32 50 17 27 1013.1 1013.0 0.0
06/11:00am 13.1 5.9 9.0 76 2.1 W 37 48 20 26 1013.1 1013.0 0.0
06/10:30am 12.9 4.8 10.1 83 1.4 WSW 43 54 23 29 1012.8 1012.7 0.0
06/10:00am 13.3 6.6 9.7 79 1.8 W 35 50 19 27 1012.5 1012.4 0.0
06/09:31am 13.1 6.4 9.7 80 1.7 WSW 35 54 19 29 1012.6 1012.5 0.0
06/09:30am 13.2 6.2 9.8 80 1.7 WSW 37 54 20 29 1012.6 1012.5 0.0
06/09:00am 12.8 5.4 10.0 83 1.4 WSW 39 52 21 28 1012.7 1012.6 0.0
06/08:30am 13.2 6.9 9.8 80 1.7 W 33 48 18 26 1012.1 1012.0 0.0
06/08:00am 12.6 6.6 10.0 84 1.3 W 32 46 17 25 1011.5 1011.4 0.0
06/07:30am 12.6 6.9 9.8 83 1.4 W 30 50 16 27 1011.6 1011.5 0.0
06/07:21am 12.5 6.3 9.5 82 1.5 W 32 50 17 27 1011.5 1011.4 0.0
06/07:00am 12.5 6.1 9.3 81 1.6 W 33 48 18 26 1011.2 1011.1 0.0
06/06:30am 12.5 6.3 9.3 81 1.6 W 32 52 17 28 1011.1 1011.0 0.0
06/06:00am 12.8 6.7 9.6 81 1.6 W 32 56 17 30 1010.7 1010.6 0.0
06/05:56am 12.8 5.7 9.6 81 1.6 W 37 56 20 30 1010.8 1010.7 0.0
06/05:30am 12.5 5.7 9.1 80 1.7 W 35 48 19 26 1010.6 1010.5 0.0

Other formats

Comma delimited format used in spreadsheet applications
http://www.bom.gov.au/fwo/IDV60801/IDV60801.94826.axf

JavaScript Object Notation format (JSON) in row-major order
http://www.bom.gov.au/fwo/IDV60801/IDV60801.94826.json

Data quality

Most of these data are generated automatically and are frequently updated. Quality checks on data are not normally performed. It is possible for incorrect values to appear. Refer to information at About Latest Weather Observations and please check the disclaimer before using these data.